Time;durP1;ratioP1;P1;durP2;ratioP2;P2;SDS_P1;SDS_P2;PMS_P1;PMS_P2;Temp;Humidity;BMP_temperature;BMP_pressure;BME280_temperature;BME280_humidity;BME280_pressure;Samples;Min_cycle;Max_cycle;Signal;HPM_P1;HPM_P2
2021/01/18 00:02:08;;;;;;;27.60;12.63;;;;;;;-16.87;67.51;99551.52;1760444;81;21826;-57
2021/01/18 00:04:36;;;;;;;19.20;8.23;;;;;;;-16.81;67.49;99555.00;1752983;81;21624;-57
2021/01/18 00:07:07;;;;;;;19.55;8.43;;;;;;;-16.77;67.33;99555.16;1742027;81;21162;-57
2021/01/18 00:09:36;;;;;;;25.68;11.20;;;;;;;-16.82;67.36;99557.23;1741810;81;21608;-57
2021/01/18 00:12:05;;;;;;;34.78;16.73;;;;;;;-16.88;67.56;99557.66;1750241;81;21102;-56
2021/01/18 00:14:33;;;;;;;33.08;14.00;;;;;;;-16.85;67.82;99562.66;1736277;81;21683;-57
2021/01/18 00:17:07;;;;;;;28.98;11.70;;;;;;;-16.72;67.81;99563.14;1732772;81;21291;-56
2021/01/18 00:19:35;;;;;;;28.20;11.12;;;;;;;-16.65;67.67;99563.92;1759315;81;21300;-57
2021/01/18 00:22:02;;;;;;;39.90;19.82;;;;;;;-16.68;67.57;99562.80;1745993;81;21314;-56
2021/01/18 00:24:30;;;;;;;32.60;12.60;;;;;;;-16.68;67.72;99565.90;1747954;81;21158;-57
2021/01/18 00:26:57;;;;;;;38.48;14.85;;;;;;;-16.65;67.78;99569.59;1751651;81;21617;-57
2021/01/18 00:29:25;;;;;;;29.63;10.45;;;;;;;-16.73;67.92;99559.69;1737871;81;21150;-56
2021/01/18 00:31:52;;;;;;;30.88;12.53;;;;;;;-16.72;68.22;99561.37;1751489;81;21610;-57
2021/01/18 00:34:19;;;;;;;31.90;14.20;;;;;;;-16.70;68.39;99559.48;1757652;81;21181;-57
2021/01/18 00:36:48;;;;;;;29.25;12.03;;;;;;;-16.68;68.26;99556.78;1757409;81;21296;-56
2021/01/18 00:39:15;;;;;;;24.00;9.13;;;;;;;-16.69;68.37;99559.84;1746330;81;21151;-56
2021/01/18 00:41:42;;;;;;;28.80;12.43;;;;;;;-16.66;68.43;99560.94;1754750;81;21574;-56
2021/01/18 00:44:10;;;;;;;33.18;13.60;;;;;;;-16.66;68.36;99556.19;1759717;81;21280;-56
2021/01/18 00:46:37;;;;;;;44.65;20.55;;;;;;;-16.66;68.43;99561.41;1746219;81;21202;-57
2021/01/18 00:49:05;;;;;;;39.48;17.67;;;;;;;-16.62;68.49;99553.75;1750756;81;21173;-57
2021/01/18 00:51:37;;;;;;;53.13;23.67;;;;;;;-16.57;68.48;99555.55;1721626;82;21119;-57
2021/01/18 00:54:06;;;;;;;64.07;27.48;;;;;;;-16.49;68.47;99555.83;1749021;81;21312;-57
2021/01/18 00:56:36;;;;;;;62.35;24.75;;;;;;;-16.49;68.41;99557.97;1759226;81;21181;-57
2021/01/18 00:59:04;;;;;;;37.30;14.07;;;;;;;-16.49;68.39;99555.36;1752728;81;21143;-57
2021/01/18 01:01:45;;;;;;;59.40;27.65;;;;;;;-16.47;68.48;99562.59;1739459;79;22751;-56
2021/01/18 01:04:13;;;;;;;39.35;14.60;;;;;;;-16.51;68.48;99556.41;1657778;86;21193;-56
2021/01/18 01:06:41;;;;;;;35.40;13.22;;;;;;;-16.51;68.62;99557.25;1635604;86;21156;-56
2021/01/18 01:09:08;;;;;;;34.05;11.83;;;;;;;-16.53;68.77;99561.72;1677061;85;21184;-56
2021/01/18 01:11:46;;;;;;;34.60;13.53;;;;;;;-16.55;69.03;99566.71;1684853;84;21229;-56
2021/01/18 01:14:14;;;;;;;45.83;21.55;;;;;;;-16.52;68.96;99564.70;1688291;84;21192;-57
2021/01/18 01:16:43;;;;;;;34.13;13.83;;;;;;;-16.46;69.01;99560.82;1680537;84;21210;-56
2021/01/18 01:19:11;;;;;;;29.15;11.93;;;;;;;-16.38;68.77;99552.84;1686201;85;21192;-56
2021/01/18 01:21:39;;;;;;;34.73;14.40;;;;;;;-16.30;68.71;99553.16;1667291;85;21209;-58
2021/01/18 01:24:07;;;;;;;38.38;14.07;;;;;;;-16.25;68.65;99565.84;1642054;86;21589;-58
2021/01/18 01:26:34;;;;;;;28.73;11.10;;;;;;;-16.25;68.47;99565.38;1629543;87;21671;-58
2021/01/18 01:29:02;;;;;;;27.35;10.28;;;;;;;-16.24;68.40;99562.30;1679719;85;22092;-58
2021/01/18 01:31:29;;;;;;;35.70;14.25;;;;;;;-16.24;68.42;99554.48;1636005;85;21290;-58
2021/01/18 01:33:56;;;;;;;35.50;15.38;;;;;;;-16.18;68.40;99557.11;1656515;85;21196;-58
2021/01/18 01:36:24;;;;;;;34.78;14.68;;;;;;;-16.19;68.25;99552.39;1666839;85;21181;-58
2021/01/18 01:38:51;;;;;;;35.25;13.85;;;;;;;-16.14;68.33;99556.80;1669925;85;21600;-58
2021/01/18 01:41:18;;;;;;;35.63;15.50;;;;;;;-16.07;68.04;99554.58;1662293;85;21184;-58
2021/01/18 01:43:46;;;;;;;33.42;12.35;;;;;;;-16.06;67.97;99552.34;1673004;85;21193;-57
2021/01/18 01:46:15;;;;;;;39.70;15.78;;;;;;;-16.10;67.83;99550.43;1656506;85;21746;-58
2021/01/18 01:48:43;;;;;;;41.90;15.53;;;;;;;-16.13;67.87;99545.44;1637052;87;21149;-57
2021/01/18 01:51:11;;;;;;;36.38;13.72;;;;;;;-16.07;67.92;99541.55;1677337;84;21837;-58
2021/01/18 01:53:38;;;;;;;36.70;14.35;;;;;;;-16.05;67.80;99545.73;1682881;85;21465;-58
2021/01/18 01:56:06;;;;;;;37.15;15.35;;;;;;;-16.03;67.74;99544.30;1680993;85;21152;-57
2021/01/18 01:58:33;;;;;;;45.25;18.30;;;;;;;-16.04;67.65;99543.93;1671650;85;21559;-56
2021/01/18 02:01:01;;;;;;;37.45;14.43;;;;;;;-16.03;67.76;99533.88;1674817;84;21612;-56
2021/01/18 02:03:42;;;;;;;42.00;17.30;;;;;;;-16.00;67.70;99543.61;1636528;85;21607;-57
2021/01/18 02:06:09;;;;;;;39.30;15.98;;;;;;;-15.98;67.69;99543.52;1650966;85;21201;-57
2021/01/18 02:08:37;;;;;;;39.23;14.05;;;;;;;-16.00;67.43;99550.13;1664352;85;21604;-57
2021/01/18 02:11:06;;;;;;;41.30;14.98;;;;;;;-16.03;67.53;99549.52;1673841;85;21903;-57
2021/01/18 02:13:57;;;;;;;45.75;19.45;;;;;;;-16.02;67.70;99545.51;1673269;85;21172;-57
2021/01/18 02:16:36;;;;;;;67.67;25.88;;;;;;;-16.03;67.70;99549.52;1661581;85;21576;-57
2021/01/18 02:19:47;;;;;;;43.80;17.85;;;;;;;-15.99;67.81;99537.46;1668285;85;21168;-57
2021/01/18 02:22:46;;;;;;;39.45;14.70;;;;;;;-15.97;67.65;99531.66;1666817;85;21333;-57
2021/01/18 02:25:24;;;;;;;44.98;16.95;;;;;;;-15.98;67.73;99540.91;1675215;85;21685;-57
2021/01/18 02:28:22;;;;;;;37.05;14.63;;;;;;;-15.98;67.63;99538.30;1667202;85;21175;-57
2021/01/18 02:31:15;;;;;;;42.60;16.07;;;;;;;-16.05;67.65;99544.89;1610953;87;21355;-56
2021/01/18 02:34:18;;;;;;;42.08;16.27;;;;;;;-16.11;67.73;99543.54;1653986;86;21150;-57
2021/01/18 02:37:10;;;;;;;53.10;18.10;;;;;;;-16.11;67.75;99545.31;1614461;86;21215;-57
2021/01/18 02:39:51;;;;;;;29.57;12.15;;;;;;;-16.14;67.81;99546.84;1646479;86;21182;-56
2021/01/18 02:42:23;;;;;;;40.38;16.45;;;;;;;-16.17;67.71;99540.54;1625798;86;21170;-56
2021/01/18 02:44:51;;;;;;;36.20;14.53;;;;;;;-16.26;67.72;99540.23;1676308;85;21175;-56
2021/01/18 02:47:19;;;;;;;36.70;15.88;;;;;;;-16.30;67.77;99541.89;1650007;85;21184;-56
2021/01/18 02:49:52;;;;;;;35.40;12.13;;;;;;;-16.33;67.72;99542.91;1663175;85;21653;-55
2021/01/18 02:52:19;;;;;;;35.30;15.48;;;;;;;-16.35;67.70;99543.97;1641350;86;21184;-56
2021/01/18 02:54:47;;;;;;;42.55;16.17;;;;;;;-16.40;67.67;99547.39;1646602;85;21762;-57
2021/01/18 02:57:15;;;;;;;51.50;18.95;;;;;;;-16.41;67.60;99549.63;1630505;86;21210;-56
2021/01/18 02:59:45;;;;;;;65.03;23.12;;;;;;;-16.41;67.56;99554.83;1652514;86;21331;-56
2021/01/18 03:02:24;;;;;;;43.38;16.37;;;;;;;-16.43;67.62;99557.53;1636909;86;21245;-56
2021/01/18 03:05:25;;;;;;;88.10;29.48;;;;;;;-16.36;67.55;99564.45;1655738;86;21192;-56
2021/01/18 03:08:15;;;;;;;68.25;23.87;;;;;;;-16.40;67.42;99565.13;1702874;83;21148;-55
2021/01/18 03:10:52;;;;;;;44.70;17.32;;;;;;;-16.40;67.41;99568.23;1719482;82;21177;-58
2021/01/18 03:13:39;;;;;;;37.83;15.50;;;;;;;-16.44;67.26;99568.92;1718685;83;21173;-56
2021/01/18 03:16:20;;;;;;;36.83;16.17;;;;;;;-16.51;67.20;99565.53;1716593;83;21218;-56
2021/01/18 03:18:48;;;;;;;39.20;15.28;;;;;;;-16.55;67.32;99574.53;1705294;83;21141;-55
2021/01/18 03:21:16;;;;;;;37.33;14.43;;;;;;;-16.55;67.33;99583.65;1696606;83;21597;-56
2021/01/18 03:23:44;;;;;;;55.88;23.38;;;;;;;-16.53;67.38;99582.56;1719690;83;21148;-55
2021/01/18 03:26:12;;;;;;;38.60;15.53;;;;;;;-16.49;67.24;99576.20;1704395;83;21238;-56
2021/01/18 03:28:40;;;;;;;32.93;11.83;;;;;;;-16.47;67.12;99582.63;1715664;83;21845;-56
2021/01/18 03:31:07;;;;;;;35.13;15.13;;;;;;;-16.44;66.91;99585.85;1701775;83;21117;-56
2021/01/18 03:33:34;;;;;;;35.43;13.75;;;;;;;-16.45;66.79;99580.73;1709075;83;21161;-56
2021/01/18 03:36:03;;;;;;;35.92;13.78;;;;;;;-16.50;66.78;99586.72;1712294;83;21129;-56
2021/01/18 03:38:30;;;;;;;42.60;16.05;;;;;;;-16.53;66.72;99581.73;1705510;83;21738;-57
2021/01/18 03:40:57;;;;;;;36.20;14.60;;;;;;;-16.54;66.84;99574.37;1721148;83;21206;-56
2021/01/18 03:43:25;;;;;;;36.95;14.95;;;;;;;-16.41;66.85;99574.37;1706083;83;21152;-56
2021/01/18 03:45:52;;;;;;;38.33;15.95;;;;;;;-16.29;66.55;99566.98;1720408;83;21662;-56
2021/01/18 03:48:20;;;;;;;41.37;15.15;;;;;;;-16.23;66.19;99570.49;1713017;83;21165;-56
2021/01/18 03:50:49;;;;;;;35.80;16.70;;;;;;;-16.25;65.99;99571.05;1694685;83;21362;-56
2021/01/18 03:53:17;;;;;;;37.70;14.40;;;;;;;-16.25;65.86;99580.17;1716911;83;21149;-57
2021/01/18 03:55:48;;;;;;;48.83;14.05;;;;;;;-16.28;65.80;99573.87;1707067;82;21172;-56
2021/01/18 03:58:18;;;;;;;35.10;13.98;;;;;;;-16.39;65.79;99578.53;1716573;83;21290;-56
2021/01/18 04:00:45;;;;;;;35.78;15.00;;;;;;;-16.51;65.71;99573.35;1720167;83;21226;-56
2021/01/18 04:03:13;;;;;;;35.83;14.30;;;;;;;-16.62;65.85;99573.28;1722117;83;21153;-56
2021/01/18 04:05:40;;;;;;;35.52;13.80;;;;;;;-16.63;65.94;99575.05;1706688;83;21193;-56
2021/01/18 04:08:08;;;;;;;34.25;13.48;;;;;;;-16.68;65.93;99569.80;1706457;83;21291;-56
2021/01/18 04:12:11;;;;;;;34.00;13.62;;;;;;;-16.70;66.07;99571.66;1740698;79;22830;-56
2021/01/18 04:14:38;;;;;;;37.55;15.40;;;;;;;-16.87;66.03;99576.26;1699868;82;21152;-57
2021/01/18 04:17:07;;;;;;;44.60;15.75;;;;;;;-16.96;66.08;99573.42;1722036;82;21592;-57
2021/01/18 04:19:34;;;;;;;33.92;14.70;;;;;;;-17.03;66.12;99563.89;1695010;83;21280;-57
2021/01/18 04:22:05;;;;;;;28.35;11.75;;;;;;;-17.07;66.21;99566.83;1720551;83;21156;-57
2021/01/18 04:24:36;;;;;;;30.80;12.88;;;;;;;-17.09;66.32;99564.77;1719850;83;21149;-57
2021/01/18 04:27:08;;;;;;;39.40;15.50;;;;;;;-17.13;66.29;99559.41;1722348;83;21271;-56
2021/01/18 04:29:36;;;;;;;37.80;14.75;;;;;;;-17.13;66.39;99569.35;1688445;83;21177;-57
2021/01/18 04:32:05;;;;;;;35.05;14.28;;;;;;;-17.15;66.28;99572.53;1725930;82;21156;-56
2021/01/18 04:34:33;;;;;;;33.85;14.80;;;;;;;-17.14;66.27;99577.28;1686270;83;21169;-58
2021/01/18 04:37:01;;;;;;;30.25;13.40;;;;;;;-17.16;66.17;99585.64;1693717;83;21576;-57
2021/01/18 04:39:28;;;;;;;41.08;15.58;;;;;;;-17.18;66.15;99574.05;1694727;83;21149;-57
2021/01/18 04:41:58;;;;;;;32.63;11.63;;;;;;;-17.23;66.09;99582.61;1719320;83;21190;-57
2021/01/18 04:44:27;;;;;;;38.90;15.80;;;;;;;-17.32;66.09;99581.93;1718952;83;21311;-56
2021/01/18 04:46:55;;;;;;;39.78;13.70;;;;;;;-17.41;66.30;99588.56;1720442;83;21187;-56
2021/01/18 04:49:23;;;;;;;41.02;15.13;;;;;;;-17.45;66.39;99587.55;1723484;82;21177;-56
2021/01/18 04:51:54;;;;;;;42.90;16.32;;;;;;;-17.48;66.37;99593.80;1706726;83;21168;-57
2021/01/18 04:54:24;;;;;;;48.52;17.17;;;;;;;-17.46;66.46;99591.91;1712492;83;21356;-56
2021/01/18 04:57:28;;;;;;;49.08;17.62;;;;;;;-17.46;66.43;99597.11;1720560;83;21622;-56
2021/01/18 04:59:58;;;;;;;43.00;16.95;;;;;;;-17.46;66.44;99597.11;1737771;81;21197;-56
2021/01/18 05:02:25;;;;;;;37.88;15.32;;;;;;;-17.46;66.46;99593.70;1744248;80;21734;-56
2021/01/18 05:04:53;;;;;;;41.58;16.00;;;;;;;-17.48;66.44;99595.55;1765408;80;21146;-57
2021/01/18 05:07:51;;;;;;;37.48;15.53;;;;;;;-17.53;66.39;99594.55;1694452;81;21336;-57
2021/01/18 05:10:25;;;;;;;34.40;13.68;;;;;;;-17.54;66.29;99595.96;1760601;80;21176;-56
2021/01/18 05:12:56;;;;;;;37.63;13.45;;;;;;;-17.53;66.21;99600.23;1763033;80;21200;-57
2021/01/18 05:15:25;;;;;;;38.67;14.75;;;;;;;-17.55;66.09;99596.88;1761620;80;21176;-57
2021/01/18 05:18:00;;;;;;;39.00;14.33;;;;;;;-17.60;66.19;99602.41;1763093;81;21160;-56
2021/01/18 05:20:27;;;;;;;36.60;13.98;;;;;;;-17.61;66.27;99602.06;1760592;81;21189;-57
2021/01/18 05:22:55;;;;;;;38.50;14.68;;;;;;;-17.58;66.20;99608.83;1765524;81;21157;-57
2021/01/18 05:25:23;;;;;;;37.10;14.45;;;;;;;-17.56;66.21;99612.98;1766950;81;21547;-57
2021/01/18 05:28:06;;;;;;;37.10;14.53;;;;;;;-17.48;66.07;99622.41;1734480;80;21608;-57
2021/01/18 05:30:39;;;;;;;36.23;15.20;;;;;;;-17.47;65.85;99616.74;1736576;81;21156;-56
2021/01/18 05:33:14;;;;;;;34.50;13.20;;;;;;;-17.50;65.75;99624.28;1708504;82;21136;-56
2021/01/18 05:35:51;;;;;;;38.13;14.95;;;;;;;-17.49;65.82;99627.23;1735219;81;21174;-57
2021/01/18 05:38:18;;;;;;;37.63;14.18;;;;;;;-17.45;65.60;99626.56;1731594;81;21728;-57
2021/01/18 05:40:49;;;;;;;39.75;16.12;;;;;;;-17.48;65.33;99631.97;1748763;81;21427;-57
2021/01/18 05:43:18;;;;;;;39.23;15.53;;;;;;;-17.59;65.34;99631.85;1752936;81;21597;-57
2021/01/18 05:45:46;;;;;;;31.23;13.70;;;;;;;-17.66;65.49;99639.22;1738149;81;21275;-57
2021/01/18 05:48:26;;;;;;;39.15;15.65;;;;;;;-17.62;65.62;99645.06;1743789;81;21161;-57
2021/01/18 05:51:00;;;;;;;44.25;15.00;;;;;;;-17.60;65.57;99649.22;1739683;81;21652;-57
2021/01/18 05:53:31;;;;;;;39.08;14.65;;;;;;;-17.62;65.51;99640.70;1746613;81;21594;-56
2021/01/18 05:56:19;;;;;;;34.85;14.63;;;;;;;-17.60;65.57;99646.62;1750343;81;21155;-56
2021/01/18 05:58:48;;;;;;;38.40;15.50;;;;;;;-17.56;65.36;99647.26;1742260;81;21180;-57
2021/01/18 06:01:41;;;;;;;41.95;16.00;;;;;;;-17.49;65.19;99640.23;1746620;81;21201;-56
2021/01/18 06:04:13;;;;;;;37.35;16.15;;;;;;;-17.36;65.13;99641.60;1697520;84;21173;-56
2021/01/18 06:06:44;;;;;;;39.65;16.37;;;;;;;-17.33;64.60;99641.40;1724922;82;21197;-55
2021/01/18 06:09:11;;;;;;;40.92;16.25;;;;;;;-17.37;64.68;99647.73;1703689;83;21623;-55
2021/01/18 06:11:39;;;;;;;41.73;17.17;;;;;;;-17.35;64.78;99654.95;1732262;82;21140;-55
2021/01/18 06:14:06;;;;;;;45.58;16.27;;;;;;;-17.31;64.55;99658.57;1731978;82;21334;-55
2021/01/18 06:16:34;;;;;;;45.20;17.17;;;;;;;-17.19;64.77;99653.05;1702760;83;21229;-55
2021/01/18 06:19:04;;;;;;;37.35;14.87;;;;;;;-17.06;64.47;99650.47;1700684;83;21149;-56
2021/01/18 06:21:39;;;;;;;46.00;16.97;;;;;;;-17.08;64.33;99657.09;1705209;84;21628;-55
2021/01/18 06:24:23;;;;;;;40.23;15.43;;;;;;;-17.11;64.42;99664.27;1704096;83;21174;-56
2021/01/18 06:26:50;;;;;;;43.02;15.32;;;;;;;-17.18;64.47;99661.70;1703901;83;21857;-56
2021/01/18 06:29:39;;;;;;;31.37;12.20;;;;;;;-17.26;64.45;99667.39;1704129;83;21743;-56
2021/01/18 06:32:08;;;;;;;37.25;14.85;;;;;;;-17.35;64.58;99667.50;1731354;82;21175;-55
2021/01/18 06:34:36;;;;;;;46.92;16.62;;;;;;;-17.44;64.93;99672.47;1731194;83;21627;-55
2021/01/18 06:37:03;;;;;;;43.02;17.40;;;;;;;-17.43;65.21;99668.95;1711316;83;21161;-54
2021/01/18 06:39:31;;;;;;;42.17;17.10;;;;;;;-17.36;65.53;99670.22;1698261;84;21222;-56
2021/01/18 06:42:01;;;;;;;39.65;14.63;;;;;;;-17.28;65.75;99671.38;1719753;83;21530;-56
2021/01/18 06:44:39;;;;;;;48.30;18.20;;;;;;;-17.19;65.88;99680.84;1698220;82;21156;-57
2021/01/18 06:47:32;;;;;;;41.23;14.47;;;;;;;-17.13;65.97;99684.34;1707472;83;21133;-56
2021/01/18 06:50:05;;;;;;;42.45;15.68;;;;;;;-17.03;66.12;99676.30;1727973;82;21156;-55
2021/01/18 06:52:35;;;;;;;42.48;16.20;;;;;;;-16.99;66.21;99686.41;1728232;83;21520;-55
2021/01/18 06:58:03;;;;;;;34.38;13.38;;;;;;;-16.91;66.53;99690.66;1818086;79;23441;-55
2021/01/18 07:00:31;;;;;;;28.20;10.38;;;;;;;-16.92;66.71;99692.89;1785535;80;21137;-55
2021/01/18 07:03:02;;;;;;;37.85;14.13;;;;;;;-16.85;66.86;99690.25;1710068;83;21209;-56
2021/01/18 07:05:39;;;;;;;39.48;15.88;;;;;;;-16.75;66.89;99697.81;1705364;83;21337;-55
2021/01/18 07:08:17;;;;;;;36.63;15.55;;;;;;;-16.61;67.02;99701.30;1718289;83;21189;-56
2021/01/18 07:10:50;;;;;;;35.65;14.13;;;;;;;-16.47;66.95;99697.27;1731403;82;21173;-55
2021/01/18 07:13:19;;;;;;;41.00;18.07;;;;;;;-16.31;67.03;99699.20;1694374;84;21322;-56
2021/01/18 07:15:50;;;;;;;30.40;13.10;;;;;;;-16.07;66.96;99699.28;1698087;83;21486;-56
2021/01/18 07:18:18;;;;;;;37.70;16.37;;;;;;;-15.86;66.73;99692.59;1724319;81;21168;-57
2021/01/18 07:20:47;;;;;;;27.77;11.15;;;;;;;-15.72;66.56;99696.37;1703896;83;21657;-57
2021/01/18 07:23:28;;;;;;;34.43;14.03;;;;;;;-15.61;66.24;99695.61;1715086;82;21707;-57
2021/01/18 07:26:06;;;;;;;26.65;10.65;;;;;;;-15.63;66.07;99692.30;1706413;83;21181;-56
2021/01/18 07:28:34;;;;;;;34.70;13.08;;;;;;;-15.62;66.17;99692.66;1709085;83;21608;-56
2021/01/18 07:31:01;;;;;;;30.97;12.10;;;;;;;-15.61;66.29;99706.05;1702362;82;21197;-56
2021/01/18 07:33:29;;;;;;;33.08;13.38;;;;;;;-15.75;66.43;99668.73;1726967;83;21632;-56
2021/01/18 07:35:57;;;;;;;28.38;11.30;;;;;;;-15.42;66.33;99706.40;1695366;83;21161;-56
2021/01/18 07:38:28;;;;;;;23.35;10.13;;;;;;;-15.31;66.31;99711.70;1725029;83;21170;-56
2021/01/18 07:41:12;;;;;;;29.35;11.73;;;;;;;-15.25;66.28;99713.39;1706096;83;21519;-56
2021/01/18 07:43:45;;;;;;;26.05;10.80;;;;;;;-15.26;65.96;99718.23;1698040;83;21148;-56
2021/01/18 07:46:32;;;;;;;27.87;12.50;;;;;;;-15.12;65.83;99716.44;1670625;84;21169;-55
2021/01/18 07:49:02;;;;;;;31.50;12.58;;;;;;;-14.92;66.07;99721.04;1736339;82;21137;-56
2021/01/18 07:51:33;;;;;;;28.27;11.38;;;;;;;-14.81;65.40;99714.09;1701038;82;21193;-56
2021/01/18 07:54:01;;;;;;;29.50;12.75;;;;;;;-14.78;64.66;99719.09;1736875;82;21161;-55
2021/01/18 07:56:32;;;;;;;28.30;10.85;;;;;;;-14.83;64.60;99718.58;1710130;83;21218;-56
2021/01/18 07:59:06;;;;;;;29.45;11.28;;;;;;;-14.80;64.91;99727.96;1719770;80;21596;-56
2021/01/18 08:01:36;;;;;;;28.50;12.45;;;;;;;-14.81;64.64;99728.94;1763936;80;21223;-55
2021/01/18 08:04:25;;;;;;;35.48;16.17;;;;;;;-14.84;64.74;99729.97;1748364;82;21157;-56
2021/01/18 08:07:07;;;;;;;27.17;11.22;;;;;;;-14.78;65.04;99721.70;1751233;80;21549;-56
2021/01/18 08:09:36;;;;;;;31.62;13.30;;;;;;;-14.79;65.26;99737.01;1738304;80;21162;-55
2021/01/18 08:12:34;;;;;;;29.92;13.38;;;;;;;-14.98;65.27;99696.68;1748848;80;21192;-56
2021/01/18 08:15:07;;;;;;;;;;;;;;;-14.67;65.40;99722.69;1751319;81;21522;-57
2021/01/18 08:17:35;;;;;;;38.48;15.88;;;;;;;-14.60;64.95;99724.73;1748706;80;20190;-57
2021/01/18 08:22:48;;;;;;;27.30;10.85;;;;;;;-14.49;65.47;99720.02;1789340;78;23131;-56
2021/01/18 08:25:15;;;;;;;21.23;9.20;;;;;;;-14.39;65.32;99724.92;1752816;80;21152;-56
2021/01/18 08:27:56;;;;;;;27.13;11.97;;;;;;;-14.23;64.70;99729.31;1717067;81;21336;-55
2021/01/18 08:30:30;;;;;;;30.72;12.20;;;;;;;-14.14;63.93;99726.48;1727015;81;21603;-58
2021/01/18 08:33:07;;;;;;;28.45;10.60;;;;;;;-14.09;63.85;99731.71;1726219;83;21549;-56
2021/01/18 08:38:29;;;;;;;30.15;12.63;;;;;;;-14.02;63.59;99718.52;1810967;79;23546;-56
2021/01/18 08:41:07;;;;;;;28.73;11.93;;;;;;;-14.02;63.65;99730.77;1767273;78;21180;-57
2021/01/18 08:43:53;;;;;;;30.62;12.55;;;;;;;-13.95;63.79;99728.88;1756459;81;21660;-57
2021/01/18 08:46:39;;;;;;;30.17;11.68;;;;;;;-13.75;63.77;99724.27;1727371;81;21181;-55
2021/01/18 08:49:28;;;;;;;32.63;13.65;;;;;;;-13.63;62.83;99725.08;1783989;80;21133;-56
2021/01/18 08:51:56;;;;;;;34.70;15.18;;;;;;;-13.57;62.75;99722.01;1757542;80;21135;-56
2021/01/18 08:54:37;;;;;;;34.88;15.03;;;;;;;-13.46;63.02;99722.48;1764654;80;21283;-56
2021/01/18 08:57:25;;;;;;;31.87;14.33;;;;;;;-13.26;62.87;99717.33;1732415;81;21326;-56
2021/01/18 09:00:11;;;;;;;34.50;14.98;;;;;;;-13.09;62.22;99710.73;1754937;81;21153;-56
2021/01/18 09:02:40;;;;;;;30.37;12.18;;;;;;;-12.97;61.62;99713.66;1753763;81;21148;-56
2021/01/18 09:05:20;;;;;;;32.75;12.23;;;;;;;-12.96;61.04;99713.98;1758986;81;21170;-56
2021/01/18 09:07:49;;;;;;;30.02;13.62;;;;;;;-13.02;60.70;99705.31;1759832;80;21661;-56
2021/01/18 09:10:21;;;;;;;30.82;14.33;;;;;;;-13.16;61.12;99713.48;1747043;80;21220;-57
2021/01/18 09:12:49;;;;;;;30.80;12.80;;;;;;;-13.40;61.22;99677.47;1720230;83;21190;-57
2021/01/18 09:15:19;;;;;;;27.62;12.37;;;;;;;-13.21;61.06;99703.36;1723137;83;21319;-57
2021/01/18 09:17:47;;;;;;;29.95;14.10;;;;;;;-13.29;61.68;99699.70;1701179;84;21877;-57
2021/01/18 09:20:16;;;;;;;22.48;10.20;;;;;;;-13.23;61.97;99697.91;1700686;84;21314;-57
2021/01/18 09:22:44;;;;;;;35.80;15.10;;;;;;;-13.13;61.21;99696.67;1677708;84;21233;-57
2021/01/18 09:25:14;;;;;;;28.40;12.50;;;;;;;-13.13;61.40;99698.83;1720806;81;21593;-57
2021/01/18 09:34:35;;;;;;;30.77;13.48;;;;;;;-12.59;61.01;99680.84;1762982;79;22699;-56
2021/01/18 09:37:05;;;;;;;32.03;14.50;;;;;;;-12.53;60.77;99683.78;1696847;83;21214;-56
2021/01/18 09:39:32;;;;;;;34.27;15.13;;;;;;;-12.33;61.00;99680.83;1704088;83;21616;-57
2021/01/18 09:42:02;;;;;;;29.92;12.33;;;;;;;-12.15;60.13;99676.66;1718086;83;21181;-56
2021/01/18 09:44:30;;;;;;;30.57;13.93;;;;;;;-12.15;59.89;99677.97;1687287;83;21269;-58
2021/01/18 09:46:57;;;;;;;33.53;15.18;;;;;;;-12.05;59.91;99677.54;1704862;83;21214;-57
2021/01/18 09:49:28;;;;;;;34.20;14.07;;;;;;;-12.00;59.66;99677.12;1722300;83;21576;-57
2021/01/18 09:51:57;;;;;;;32.15;13.95;;;;;;;-11.85;59.48;99680.59;1722388;83;21141;-57
2021/01/18 09:54:24;;;;;;;28.32;10.63;;;;;;;-11.75;59.00;99678.84;1670757;83;21173;-57
2021/01/18 09:56:52;;;;;;;32.23;15.58;;;;;;;-11.79;58.66;99686.63;1707466;83;21180;-56
2021/01/18 09:59:20;;;;;;;32.78;15.13;;;;;;;-11.82;59.32;99686.89;1683473;83;21314;-56
2021/01/18 10:01:49;;;;;;;28.50;12.05;;;;;;;-11.58;58.95;99683.11;1715779;83;21622;-55
2021/01/18 10:04:24;;;;;;;22.70;10.28;;;;;;;-11.52;57.73;99680.77;1657535;85;21153;-55
2021/01/18 10:07:03;;;;;;;25.45;11.10;;;;;;;-11.50;57.46;99680.63;1666992;85;21165;-55
2021/01/18 10:09:34;;;;;;;20.40;10.18;;;;;;;-11.55;56.90;99673.16;1701353;83;21182;-56
2021/01/18 10:12:04;;;;;;;21.10;10.08;;;;;;;-11.74;56.85;99680.98;1713756;83;21206;-55
2021/01/18 10:14:31;;;;;;;26.82;12.68;;;;;;;-11.81;56.99;99674.13;1721713;82;21350;-55
2021/01/18 10:17:04;;;;;;;27.82;11.18;;;;;;;-11.88;57.09;99671.67;1712629;82;21198;-55
2021/01/18 10:19:37;;;;;;;24.15;11.35;;;;;;;-11.82;56.42;99668.52;1689837;83;21587;-55
2021/01/18 10:22:08;;;;;;;23.20;11.00;;;;;;;-11.90;56.86;99667.53;1704288;82;21185;-55
2021/01/18 10:24:37;;;;;;;22.27;10.72;;;;;;;-11.88;57.00;99672.16;1690740;83;21184;-55
2021/01/18 10:27:12;;;;;;;24.95;11.63;;;;;;;-11.77;57.20;99672.06;1695741;83;21188;-56
2021/01/18 10:29:42;;;;;;;23.80;10.68;;;;;;;-11.72;56.62;99666.76;1713295;83;21608;-55
2021/01/18 10:32:10;;;;;;;27.02;12.60;;;;;;;-11.70;56.71;99675.32;1701003;82;21742;-55
2021/01/18 10:34:39;;;;;;;22.35;9.10;;;;;;;-11.66;56.54;99669.32;1718867;83;21295;-56
2021/01/18 10:37:14;;;;;;;32.17;13.78;;;;;;;-11.58;56.30;99668.66;1695085;83;21140;-56
2021/01/18 10:39:42;;;;;;;24.23;11.88;;;;;;;-11.57;56.26;99659.80;1690734;83;21160;-56
2021/01/18 10:42:16;;;;;;;53.90;20.77;;;;;;;-11.53;56.14;99658.56;1680062;83;21747;-55
2021/01/18 10:44:52;;;;;;;32.38;14.95;;;;;;;-11.46;55.73;99657.91;1722928;83;21617;-56
2021/01/18 10:47:27;;;;;;;26.33;13.50;;;;;;;-11.45;55.96;99656.11;1720192;83;21596;-57
2021/01/18 10:49:57;;;;;;;32.53;15.68;;;;;;;-11.45;56.32;99651.69;1695089;83;21314;-56
2021/01/18 10:55:17;;;;;;;31.77;14.35;;;;;;;-11.25;56.00;99655.17;1775333;79;22760;-55
2021/01/18 10:57:46;;;;;;;31.75;15.78;;;;;;;-11.41;56.08;99658.34;1705327;83;21168;-56
2021/01/18 11:00:21;;;;;;;28.20;13.90;;;;;;;-11.54;56.31;99654.27;1693376;84;21168;-56
2021/01/18 11:03:04;;;;;;;22.32;10.50;;;;;;;-11.59;56.49;99658.63;1724098;83;21881;-56
2021/01/18 11:05:39;;;;;;;22.77;9.85;;;;;;;-11.51;56.59;99650.09;1722262;83;21749;-56
2021/01/18 11:08:08;;;;;;;25.72;12.40;;;;;;;-11.51;56.17;99652.71;1650929;87;21176;-56
2021/01/18 11:10:38;;;;;;;19.85;9.83;;;;;;;-11.52;55.90;99658.45;1657561;85;21938;-56
2021/01/18 11:13:10;;;;;;;31.55;14.00;;;;;;;-11.78;56.10;99624.45;1665744;85;21777;-56
2021/01/18 11:15:42;;;;;;;29.95;13.48;;;;;;;-11.58;56.11;99652.91;1662832;85;21220;-56
2021/01/18 11:18:11;;;;;;;26.02;12.63;;;;;;;-11.50;55.76;99651.25;1675823;84;21204;-56
2021/01/18 11:20:41;;;;;;;23.22;11.22;;;;;;;-11.49;55.89;99649.45;1674085;85;21254;-55
2021/01/18 11:23:11;;;;;;;29.15;12.75;;;;;;;-11.53;55.74;99652.00;1669389;85;21608;-55
2021/01/18 11:25:39;;;;;;;25.10;12.15;;;;;;;-11.52;56.09;99646.62;1677542;84;21655;-55
2021/01/18 11:28:15;;;;;;;31.00;14.35;;;;;;;-11.48;55.90;99641.45;1664672;85;21149;-54
2021/01/18 11:30:43;;;;;;;27.45;11.43;;;;;;;-11.57;56.00;99640.93;1667995;85;21193;-56
2021/01/18 11:33:11;;;;;;;27.45;12.28;;;;;;;-11.71;56.01;99640.86;1676062;85;21613;-55
2021/01/18 11:35:41;;;;;;;33.45;16.23;;;;;;;-11.78;56.24;99645.45;1650134;87;21207;-56
2021/01/18 11:38:09;;;;;;;28.92;13.32;;;;;;;-11.83;56.54;99646.35;1661551;85;21165;-56
2021/01/18 11:40:38;;;;;;;23.52;9.40;;;;;;;-11.83;56.68;99637.97;1668887;85;21226;-56
2021/01/18 11:43:05;;;;;;;28.15;11.18;;;;;;;-11.90;56.60;99645.22;1691011;84;21258;-55
2021/01/18 11:53:51;;;;;;;29.98;11.55;;;;;;;-12.17;58.31;99646.60;1815724;77;23537;-55
2021/01/18 11:56:18;;;;;;;25.08;11.83;;;;;;;-12.30;58.73;99659.10;1799825;78;21139;-55
2021/01/18 11:58:46;;;;;;;27.95;11.28;;;;;;;-12.28;58.97;99652.40;1819608;78;21575;-56
2021/01/18 12:01:13;;;;;;;28.57;11.25;;;;;;;-12.29;59.23;99663.88;1804763;78;21205;-56